sensor_id;sensor_type;location;lat;lon;timestamp;noise_LAeq;noise_LA_min;noise_LA_max;noise_LA01;noise_LA95
4048;Laerm;2038;51.728;6.674;2023-07-16T00:01:13;45.94;39.58;63.30;;
4048;Laerm;2038;51.728;6.674;2023-07-16T00:03:39;40.96;38.21;52.80;;
4048;Laerm;2038;51.728;6.674;2023-07-16T00:06:05;40.98;38.02;52.86;;
4048;Laerm;2038;51.728;6.674;2023-07-16T00:08:32;40.47;37.88;51.14;;
4048;Laerm;2038;51.728;6.674;2023-07-16T00:10:58;41.38;37.12;46.18;;
4048;Laerm;2038;51.728;6.674;2023-07-16T00:13:24;43.08;37.12;57.71;;
4048;Laerm;2038;51.728;6.674;2023-07-16T00:15:50;43.42;36.77;60.34;;
4048;Laerm;2038;51.728;6.674;2023-07-16T00:18:16;41.12;37.52;48.76;;
4048;Laerm;2038;51.728;6.674;2023-07-16T00:20:43;44.05;37.32;58.63;;
4048;Laerm;2038;51.728;6.674;2023-07-16T00:23:09;44.00;34.31;60.28;;
4048;Laerm;2038;51.728;6.674;2023-07-16T00:25:35;44.09;35.66;57.55;;
4048;Laerm;2038;51.728;6.674;2023-07-16T00:28:01;40.11;36.45;43.14;;
4048;Laerm;2038;51.728;6.674;2023-07-16T00:30:28;40.01;35.94;42.47;;
4048;Laerm;2038;51.728;6.674;2023-07-16T00:32:54;44.85;37.52;59.43;;
4048;Laerm;2038;51.728;6.674;2023-07-16T00:35:20;43.58;36.20;60.39;;
4048;Laerm;2038;51.728;6.674;2023-07-16T00:37:46;41.81;36.45;56.78;;
4048;Laerm;2038;51.728;6.674;2023-07-16T00:40:13;40.38;37.12;55.66;;
4048;Laerm;2038;51.728;6.674;2023-07-16T00:42:39;42.22;38.81;49.88;;
4048;Laerm;2038;51.728;6.674;2023-07-16T00:45:12;44.21;38.52;57.57;;
4048;Laerm;2038;51.728;6.674;2023-07-16T00:47:43;42.00;37.32;50.77;;
4048;Laerm;2038;51.728;6.674;2023-07-16T00:50:11;41.23;37.70;51.51;;
4048;Laerm;2038;51.728;6.674;2023-07-16T00:52:38;40.39;35.94;46.73;;
4048;Laerm;2038;51.728;6.674;2023-07-16T00:55:06;40.18;36.91;43.99;;
4048;Laerm;2038;51.728;6.674;2023-07-16T00:57:33;42.91;34.31;58.90;;
4048;Laerm;2038;51.728;6.674;2023-07-16T00:59:59;39.87;35.04;42.16;;
4048;Laerm;2038;51.728;6.674;2023-07-16T01:02:26;39.85;33.90;43.24;;
4048;Laerm;2038;51.728;6.674;2023-07-16T01:04:53;39.72;34.69;42.03;;
4048;Laerm;2038;51.728;6.674;2023-07-16T01:07:25;41.92;34.69;57.82;;
4048;Laerm;2038;51.728;6.674;2023-07-16T01:09:54;39.81;35.66;42.47;;
4048;Laerm;2038;51.728;6.674;2023-07-16T01:12:23;39.79;35.04;42.47;;
4048;Laerm;2038;51.728;6.674;2023-07-16T01:14:51;42.61;35.66;58.31;;
4048;Laerm;2038;51.728;6.674;2023-07-16T01:17:18;41.32;34.69;55.51;;
4048;Laerm;2038;51.728;6.674;2023-07-16T01:19:44;39.67;34.69;41.68;;
4048;Laerm;2038;51.728;6.674;2023-07-16T01:22:41;41.74;35.94;55.37;;
4048;Laerm;2038;51.728;6.674;2023-07-16T01:27:58;39.89;35.04;44.11;;
4048;Laerm;2038;51.728;6.674;2023-07-16T01:30:27;41.71;35.94;55.88;;
4048;Laerm;2038;51.728;6.674;2023-07-16T01:32:57;39.67;36.20;41.75;;
4048;Laerm;2038;51.728;6.674;2023-07-16T01:35:24;39.93;37.12;42.93;;
4048;Laerm;2038;51.728;6.674;2023-07-16T01:37:51;43.50;35.36;59.16;;
4048;Laerm;2038;51.728;6.674;2023-07-16T01:40:17;46.45;36.91;63.60;;
4048;Laerm;2038;51.728;6.674;2023-07-16T01:42:44;45.91;37.87;58.25;;
4048;Laerm;2038;51.728;6.674;2023-07-16T01:45:10;44.55;36.45;60.16;;
4048;Laerm;2038;51.728;6.674;2023-07-16T01:50:14;42.28;35.36;55.89;;
4048;Laerm;2038;51.728;6.674;2023-07-16T01:52:40;42.11;35.04;58.33;;
4048;Laerm;2038;51.728;6.674;2023-07-16T01:55:07;43.14;37.12;59.51;;
4048;Laerm;2038;51.728;6.674;2023-07-16T01:57:33;42.26;37.12;59.08;;
4048;Laerm;2038;51.728;6.674;2023-07-16T01:59:59;42.33;36.91;56.73;;
4048;Laerm;2038;51.728;6.674;2023-07-16T02:02:25;39.87;36.20;42.03;;
4048;Laerm;2038;51.728;6.674;2023-07-16T02:04:52;42.64;36.91;57.83;;
4048;Laerm;2038;51.728;6.674;2023-07-16T02:07:18;42.67;37.12;57.96;;
4048;Laerm;2038;51.728;6.674;2023-07-16T02:09:44;43.78;37.12;57.12;;
4048;Laerm;2038;51.728;6.674;2023-07-16T02:12:10;39.78;36.20;42.03;;
4048;Laerm;2038;51.728;6.674;2023-07-16T02:14:37;41.81;36.45;57.11;;
4048;Laerm;2038;51.728;6.674;2023-07-16T02:17:03;44.58;37.12;62.78;;
4048;Laerm;2038;51.728;6.674;2023-07-16T02:19:29;39.83;36.91;42.29;;
4048;Laerm;2038;51.728;6.674;2023-07-16T02:21:55;39.93;37.52;42.03;;
4048;Laerm;2038;51.728;6.674;2023-07-16T02:24:22;40.01;36.69;42.35;;
4048;Laerm;2038;51.728;6.674;2023-07-16T02:26:48;39.99;36.91;42.35;;
4048;Laerm;2038;51.728;6.674;2023-07-16T02:29:14;41.98;36.91;56.64;;
4048;Laerm;2038;51.728;6.674;2023-07-16T02:31:41;39.80;37.12;42.16;;
4048;Laerm;2038;51.728;6.674;2023-07-16T02:34:09;44.74;37.12;62.68;;
4048;Laerm;2038;51.728;6.674;2023-07-16T02:36:35;39.94;36.69;42.09;;
4048;Laerm;2038;51.728;6.674;2023-07-16T02:39:01;43.07;36.91;60.40;;
4048;Laerm;2038;51.728;6.674;2023-07-16T02:41:28;43.77;37.32;58.28;;
4048;Laerm;2038;51.728;6.674;2023-07-16T02:44:05;40.08;36.45;43.49;;
4048;Laerm;2038;51.728;6.674;2023-07-16T02:46:32;39.91;36.91;44.11;;
4048;Laerm;2038;51.728;6.674;2023-07-16T02:48:59;43.64;36.91;59.91;;
4048;Laerm;2038;51.728;6.674;2023-07-16T02:51:25;41.80;37.32;56.78;;
4048;Laerm;2038;51.728;6.674;2023-07-16T02:53:51;40.14;37.70;43.14;;
4048;Laerm;2038;51.728;6.674;2023-07-16T02:56:17;40.19;37.12;50.26;;
4048;Laerm;2038;51.728;6.674;2023-07-16T02:58:43;39.94;36.91;44.11;;
4048;Laerm;2038;51.728;6.674;2023-07-16T03:01:10;47.00;36.91;70.17;;
4048;Laerm;2038;51.728;6.674;2023-07-16T03:03:36;41.07;37.32;56.83;;
4048;Laerm;2038;51.728;6.674;2023-07-16T03:06:03;40.11;36.69;42.35;;
4048;Laerm;2038;51.728;6.674;2023-07-16T03:08:29;43.31;35.36;57.18;;
4048;Laerm;2038;51.728;6.674;2023-07-16T03:10:56;43.95;37.32;58.07;;
4048;Laerm;2038;51.728;6.674;2023-07-16T03:13:23;43.07;37.32;57.47;;
4048;Laerm;2038;51.728;6.674;2023-07-16T03:15:49;41.10;37.52;53.03;;
4048;Laerm;2038;51.728;6.674;2023-07-16T03:18:19;42.87;38.05;56.71;;
4048;Laerm;2038;51.728;6.674;2023-07-16T03:20:46;40.74;38.21;43.58;;
4048;Laerm;2038;51.728;6.674;2023-07-16T03:23:13;40.79;38.21;43.29;;
4048;Laerm;2038;51.728;6.674;2023-07-16T03:25:39;40.86;38.21;43.55;;
4048;Laerm;2038;51.728;6.674;2023-07-16T03:28:05;44.36;37.88;58.63;;
4048;Laerm;2038;51.728;6.674;2023-07-16T03:30:32;41.17;37.70;45.20;;
4048;Laerm;2038;51.728;6.674;2023-07-16T03:32:59;41.37;38.37;47.36;;
4048;Laerm;2038;51.728;6.674;2023-07-16T03:35:26;40.83;38.05;44.87;;
4048;Laerm;2038;51.728;6.674;2023-07-16T03:37:52;42.75;37.88;56.66;;
4048;Laerm;2038;51.728;6.674;2023-07-16T03:40:23;40.89;37.88;45.45;;
4048;Laerm;2038;51.728;6.674;2023-07-16T03:42:50;43.02;38.05;54.13;;
4048;Laerm;2038;51.728;6.674;2023-07-16T03:45:16;43.12;38.81;52.50;;
4048;Laerm;2038;51.728;6.674;2023-07-16T03:47:42;42.61;38.81;54.85;;
4048;Laerm;2038;51.728;6.674;2023-07-16T03:50:09;42.40;38.81;51.52;;
4048;Laerm;2038;51.728;6.674;2023-07-16T03:52:35;40.85;38.02;48.54;;
4048;Laerm;2038;51.728;6.674;2023-07-16T03:55:02;41.71;38.21;45.01;;
4048;Laerm;2038;51.728;6.674;2023-07-16T03:57:29;41.80;38.52;47.48;;
4048;Laerm;2038;51.728;6.674;2023-07-16T03:59:56;42.40;38.81;48.23;;
4048;Laerm;2038;51.728;6.674;2023-07-16T04:02:23;45.04;39.92;57.51;;
4048;Laerm;2038;51.728;6.674;2023-07-16T04:04:50;45.75;38.60;56.62;;
4048;Laerm;2038;51.728;6.674;2023-07-16T04:07:17;42.67;39.35;47.50;;
4048;Laerm;2038;51.728;6.674;2023-07-16T04:09:43;42.30;38.21;48.39;;
4048;Laerm;2038;51.728;6.674;2023-07-16T04:12:10;45.45;39.58;56.04;;
4048;Laerm;2038;51.728;6.674;2023-07-16T04:14:36;44.83;38.67;55.74;;
4048;Laerm;2038;51.728;6.674;2023-07-16T04:17:02;47.25;37.88;59.70;;
4048;Laerm;2038;51.728;6.674;2023-07-16T04:19:29;44.16;38.95;59.30;;
4048;Laerm;2038;51.728;6.674;2023-07-16T04:21:55;44.86;38.05;57.52;;
4048;Laerm;2038;51.728;6.674;2023-07-16T04:24:21;46.01;38.81;57.90;;
4048;Laerm;2038;51.728;6.674;2023-07-16T04:26:47;44.59;40.13;54.18;;
4048;Laerm;2038;51.728;6.674;2023-07-16T04:29:14;42.61;38.52;54.37;;
4048;Laerm;2038;51.728;6.674;2023-07-16T04:31:40;42.69;37.52;59.60;;
4048;Laerm;2038;51.728;6.674;2023-07-16T04:34:06;45.14;38.37;59.70;;
4048;Laerm;2038;51.728;6.674;2023-07-16T04:36:32;43.51;38.05;57.65;;
4048;Laerm;2038;51.728;6.674;2023-07-16T04:38:59;46.47;38.81;59.21;;
4048;Laerm;2038;51.728;6.674;2023-07-16T04:41:25;47.13;38.81;60.56;;
4048;Laerm;2038;51.728;6.674;2023-07-16T04:43:51;47.08;39.46;64.15;;
4048;Laerm;2038;51.728;6.674;2023-07-16T04:46:17;45.58;38.95;57.82;;
4048;Laerm;2038;51.728;6.674;2023-07-16T04:48:43;47.56;38.81;59.12;;
4048;Laerm;2038;51.728;6.674;2023-07-16T04:51:10;47.85;39.21;60.58;;
4048;Laerm;2038;51.728;6.674;2023-07-16T04:53:36;47.82;39.81;63.77;;
4048;Laerm;2038;51.728;6.674;2023-07-16T04:56:02;55.55;42.47;68.59;;
4048;Laerm;2038;51.728;6.674;2023-07-16T04:58:28;48.57;43.39;59.47;;
4048;Laerm;2038;51.728;6.674;2023-07-16T05:00:55;50.07;40.98;66.10;;
4048;Laerm;2038;51.728;6.674;2023-07-16T05:03:21;45.88;40.71;56.10;;
4048;Laerm;2038;51.728;6.674;2023-07-16T05:05:47;48.65;41.68;62.16;;
4048;Laerm;2038;51.728;6.674;2023-07-16T05:08:15;46.61;38.32;59.21;;
4048;Laerm;2038;51.728;6.674;2023-07-16T05:10:41;45.98;38.99;57.92;;
4048;Laerm;2038;51.728;6.674;2023-07-16T05:13:07;46.10;38.37;63.34;;
4048;Laerm;2038;51.728;6.674;2023-07-16T05:15:33;42.06;36.91;52.40;;
4048;Laerm;2038;51.728;6.674;2023-07-16T05:17:59;41.18;37.52;50.73;;
4048;Laerm;2038;51.728;6.674;2023-07-16T05:20:26;43.91;38.02;54.33;;
4048;Laerm;2038;51.728;6.674;2023-07-16T05:22:52;45.04;37.70;56.49;;
4048;Laerm;2038;51.728;6.674;2023-07-16T05:25:18;42.90;36.91;58.99;;
4048;Laerm;2038;51.728;6.674;2023-07-16T05:27:44;44.51;37.12;56.72;;
4048;Laerm;2038;51.728;6.674;2023-07-16T05:30:11;43.78;37.52;52.92;;
4048;Laerm;2038;51.728;6.674;2023-07-16T05:32:37;45.91;38.37;54.68;;
4048;Laerm;2038;51.728;6.674;2023-07-16T05:35:04;44.69;38.37;59.34;;
4048;Laerm;2038;51.728;6.674;2023-07-16T05:37:30;45.70;40.43;57.34;;
4048;Laerm;2038;51.728;6.674;2023-07-16T05:39:57;48.39;41.82;59.33;;
4048;Laerm;2038;51.728;6.674;2023-07-16T05:42:23;45.46;40.23;56.37;;
4048;Laerm;2038;51.728;6.674;2023-07-16T05:44:49;45.27;39.46;58.36;;
4048;Laerm;2038;51.728;6.674;2023-07-16T05:47:15;44.13;37.88;56.60;;
4048;Laerm;2038;51.728;6.674;2023-07-16T05:49:41;43.41;37.70;51.73;;
4048;Laerm;2038;51.728;6.674;2023-07-16T05:52:08;48.59;40.03;58.59;;
4048;Laerm;2038;51.728;6.674;2023-07-16T05:54:35;47.70;40.53;59.22;;
4048;Laerm;2038;51.728;6.674;2023-07-16T05:57:01;45.45;39.81;57.72;;
4048;Laerm;2038;51.728;6.674;2023-07-16T05:59:27;46.56;39.34;57.28;;
4048;Laerm;2038;51.728;6.674;2023-07-16T06:01:54;45.41;39.70;56.00;;
4048;Laerm;2038;51.728;6.674;2023-07-16T06:04:20;48.81;40.80;57.15;;
4048;Laerm;2038;51.728;6.674;2023-07-16T06:06:46;48.42;41.14;62.52;;
4048;Laerm;2038;51.728;6.674;2023-07-16T06:09:12;50.12;39.34;65.97;;
4048;Laerm;2038;51.728;6.674;2023-07-16T06:11:38;48.93;41.14;61.63;;
4048;Laerm;2038;51.728;6.674;2023-07-16T06:14:05;51.41;40.80;60.86;;
4048;Laerm;2038;51.728;6.674;2023-07-16T06:16:31;50.22;42.09;58.98;;
4048;Laerm;2038;51.728;6.674;2023-07-16T06:18:57;48.11;42.71;58.91;;
4048;Laerm;2038;51.728;6.674;2023-07-16T06:21:23;47.82;40.71;57.28;;
4048;Laerm;2038;51.728;6.674;2023-07-16T06:23:49;51.42;43.24;64.41;;
4048;Laerm;2038;51.728;6.674;2023-07-16T06:26:16;53.80;41.89;70.41;;
4048;Laerm;2038;51.728;6.674;2023-07-16T06:28:42;51.80;40.98;67.51;;
4048;Laerm;2038;51.728;6.674;2023-07-16T06:31:08;54.34;40.80;66.87;;
4048;Laerm;2038;51.728;6.674;2023-07-16T06:33:34;51.16;43.04;63.95;;
4048;Laerm;2038;51.728;6.674;2023-07-16T06:36:01;51.81;38.37;64.47;;
4048;Laerm;2038;51.728;6.674;2023-07-16T06:38:27;54.54;41.68;70.15;;
4048;Laerm;2038;51.728;6.674;2023-07-16T06:40:53;56.00;42.65;72.27;;
4048;Laerm;2038;51.728;6.674;2023-07-16T06:43:19;50.87;42.09;67.54;;
4048;Laerm;2038;51.728;6.674;2023-07-16T06:45:45;52.53;43.72;72.00;;
4048;Laerm;2038;51.728;6.674;2023-07-16T06:48:12;58.90;48.37;72.02;;
4048;Laerm;2038;51.728;6.674;2023-07-16T06:50:38;56.30;43.86;70.29;;
4048;Laerm;2038;51.728;6.674;2023-07-16T06:53:04;54.95;43.44;64.86;;
4048;Laerm;2038;51.728;6.674;2023-07-16T06:55:30;49.06;42.16;58.34;;
4048;Laerm;2038;51.728;6.674;2023-07-16T06:57:56;51.17;40.71;64.26;;
4048;Laerm;2038;51.728;6.674;2023-07-16T07:00:23;54.30;40.62;63.53;;
4048;Laerm;2038;51.728;6.674;2023-07-16T07:02:49;53.22;44.23;61.34;;
4048;Laerm;2038;51.728;6.674;2023-07-16T07:05:15;51.69;41.89;63.89;;
4048;Laerm;2038;51.728;6.674;2023-07-16T07:07:41;52.29;42.93;61.87;;
4048;Laerm;2038;51.728;6.674;2023-07-16T07:10:09;48.56;40.23;63.26;;
4048;Laerm;2038;51.728;6.674;2023-07-16T07:12:36;48.23;40.03;59.19;;
4048;Laerm;2038;51.728;6.674;2023-07-16T07:15:08;58.09;40.23;80.19;;
4048;Laerm;2038;51.728;6.674;2023-07-16T07:17:34;49.71;39.92;63.87;;
4048;Laerm;2038;51.728;6.674;2023-07-16T07:20:02;57.51;42.88;69.12;;
4048;Laerm;2038;51.728;6.674;2023-07-16T07:22:29;49.08;41.14;60.12;;
4048;Laerm;2038;51.728;6.674;2023-07-16T07:24:55;55.31;46.30;73.06;;
4048;Laerm;2038;51.728;6.674;2023-07-16T07:27:21;51.76;44.15;60.00;;
4048;Laerm;2038;51.728;6.674;2023-07-16T07:29:47;50.98;42.22;64.91;;
4048;Laerm;2038;51.728;6.674;2023-07-16T07:32:19;54.86;45.60;64.82;;
4048;Laerm;2038;51.728;6.674;2023-07-16T07:34:46;48.27;41.11;59.18;;
4048;Laerm;2038;51.728;6.674;2023-07-16T07:37:12;49.36;40.62;59.76;;
4048;Laerm;2038;51.728;6.674;2023-07-16T07:39:38;54.33;42.82;67.97;;
4048;Laerm;2038;51.728;6.674;2023-07-16T07:42:05;50.16;40.98;60.66;;
4048;Laerm;2038;51.728;6.674;2023-07-16T07:44:32;54.23;41.14;66.53;;
4048;Laerm;2038;51.728;6.674;2023-07-16T07:46:59;51.98;44.51;63.19;;
4048;Laerm;2038;51.728;6.674;2023-07-16T07:49:25;56.49;46.66;67.64;;
4048;Laerm;2038;51.728;6.674;2023-07-16T07:51:51;52.75;42.71;61.36;;
4048;Laerm;2038;51.728;6.674;2023-07-16T07:54:17;50.46;42.65;59.77;;
4048;Laerm;2038;51.728;6.674;2023-07-16T07:56:46;48.20;40.53;59.04;;
4048;Laerm;2038;51.728;6.674;2023-07-16T07:59:12;50.56;41.22;59.47;;
4048;Laerm;2038;51.728;6.674;2023-07-16T08:01:39;54.38;42.03;71.78;;
4048;Laerm;2038;51.728;6.674;2023-07-16T08:04:05;56.81;44.47;66.72;;
4048;Laerm;2038;51.728;6.674;2023-07-16T08:06:31;53.11;45.17;60.98;;
4048;Laerm;2038;51.728;6.674;2023-07-16T08:08:57;51.29;43.77;63.44;;
4048;Laerm;2038;51.728;6.674;2023-07-16T08:11:24;55.06;43.34;68.97;;
4048;Laerm;2038;51.728;6.674;2023-07-16T08:13:50;50.23;41.61;61.59;;
4048;Laerm;2038;51.728;6.674;2023-07-16T08:16:16;50.44;39.58;61.48;;
4048;Laerm;2038;51.728;6.674;2023-07-16T08:18:42;52.64;43.49;62.69;;
4048;Laerm;2038;51.728;6.674;2023-07-16T08:21:09;45.29;40.71;57.90;;
4048;Laerm;2038;51.728;6.674;2023-07-16T08:23:35;48.11;40.23;59.75;;
4048;Laerm;2038;51.728;6.674;2023-07-16T08:26:01;53.60;42.98;66.77;;
4048;Laerm;2038;51.728;6.674;2023-07-16T08:28:27;50.33;43.14;58.87;;
4048;Laerm;2038;51.728;6.674;2023-07-16T08:30:53;50.54;39.81;60.51;;
4048;Laerm;2038;51.728;6.674;2023-07-16T08:33:20;46.81;40.18;56.45;;
4048;Laerm;2038;51.728;6.674;2023-07-16T08:35:46;48.26;40.98;55.16;;
4048;Laerm;2038;51.728;6.674;2023-07-16T08:38:12;50.40;42.29;60.85;;
4048;Laerm;2038;51.728;6.674;2023-07-16T08:40:38;49.63;41.46;59.31;;
4048;Laerm;2038;51.728;6.674;2023-07-16T08:43:06;53.49;41.68;65.79;;
4048;Laerm;2038;51.728;6.674;2023-07-16T08:45:41;56.60;45.40;66.28;;
4048;Laerm;2038;51.728;6.674;2023-07-16T08:48:11;56.20;42.76;69.94;;
4048;Laerm;2038;51.728;6.674;2023-07-16T08:50:38;50.56;40.89;62.41;;
4048;Laerm;2038;51.728;6.674;2023-07-16T08:53:08;54.15;43.63;62.99;;
4048;Laerm;2038;51.728;6.674;2023-07-16T08:55:34;49.54;39.34;61.38;;
4048;Laerm;2038;51.728;6.674;2023-07-16T08:58:04;50.09;40.71;60.24;;
4048;Laerm;2038;51.728;6.674;2023-07-16T09:00:31;52.64;41.96;62.17;;
4048;Laerm;2038;51.728;6.674;2023-07-16T09:02:58;52.57;41.96;62.72;;
4048;Laerm;2038;51.728;6.674;2023-07-16T09:05:25;47.83;40.88;62.20;;
4048;Laerm;2038;51.728;6.674;2023-07-16T09:07:51;54.16;40.62;62.79;;
4048;Laerm;2038;51.728;6.674;2023-07-16T09:10:17;53.29;41.75;62.47;;
4048;Laerm;2038;51.728;6.674;2023-07-16T09:12:47;53.62;42.35;62.49;;
4048;Laerm;2038;51.728;6.674;2023-07-16T09:15:17;54.07;44.47;63.53;;
4048;Laerm;2038;51.728;6.674;2023-07-16T09:17:48;55.41;43.72;68.80;;
4048;Laerm;2038;51.728;6.674;2023-07-16T09:20:18;51.21;41.68;63.53;;
4048;Laerm;2038;51.728;6.674;2023-07-16T09:22:47;54.35;43.94;66.74;;
4048;Laerm;2038;51.728;6.674;2023-07-16T09:25:13;50.34;41.03;66.73;;
4048;Laerm;2038;51.728;6.674;2023-07-16T09:27:39;53.03;43.19;59.74;;
4048;Laerm;2038;51.728;6.674;2023-07-16T09:30:07;53.07;41.46;62.01;;
4048;Laerm;2038;51.728;6.674;2023-07-16T09:32:40;53.95;44.94;65.79;;
4048;Laerm;2038;51.728;6.674;2023-07-16T09:35:17;55.65;42.29;67.00;;
4048;Laerm;2038;51.728;6.674;2023-07-16T09:37:43;55.03;43.81;65.03;;
4048;Laerm;2038;51.728;6.674;2023-07-16T09:40:11;54.50;40.43;69.65;;
4048;Laerm;2038;51.728;6.674;2023-07-16T09:42:43;55.65;42.09;72.45;;
4048;Laerm;2038;51.728;6.674;2023-07-16T09:45:19;50.54;42.58;62.88;;
4048;Laerm;2038;51.728;6.674;2023-07-16T09:47:45;55.91;43.89;70.85;;
4048;Laerm;2038;51.728;6.674;2023-07-16T09:50:12;53.55;44.69;61.41;;
4048;Laerm;2038;51.728;6.674;2023-07-16T09:52:39;51.49;43.90;62.59;;
4048;Laerm;2038;51.728;6.674;2023-07-16T09:55:09;49.44;42.88;58.17;;
4048;Laerm;2038;51.728;6.674;2023-07-16T09:57:39;51.02;41.96;59.51;;
4048;Laerm;2038;51.728;6.674;2023-07-16T10:00:09;48.19;41.22;65.02;;
4048;Laerm;2038;51.728;6.674;2023-07-16T10:02:41;51.09;41.75;59.15;;
4048;Laerm;2038;51.728;6.674;2023-07-16T10:05:19;52.61;42.98;65.58;;
4048;Laerm;2038;51.728;6.674;2023-07-16T10:07:57;51.78;42.41;63.92;;
4048;Laerm;2038;51.728;6.674;2023-07-16T10:10:53;55.58;38.95;73.57;;
4048;Laerm;2038;51.728;6.674;2023-07-16T10:13:23;48.96;40.71;60.70;;
4048;Laerm;2038;51.728;6.674;2023-07-16T10:15:58;54.24;44.65;66.69;;
4048;Laerm;2038;51.728;6.674;2023-07-16T10:18:34;49.71;39.81;66.12;;
4048;Laerm;2038;51.728;6.674;2023-07-16T10:21:08;50.99;41.82;61.23;;
4048;Laerm;2038;51.728;6.674;2023-07-16T10:23:43;52.48;43.77;62.18;;
4048;Laerm;2038;51.728;6.674;2023-07-16T10:26:13;51.86;41.30;66.58;;
4048;Laerm;2038;51.728;6.674;2023-07-16T10:28:39;48.69;38.67;61.49;;
4048;Laerm;2038;51.728;6.674;2023-07-16T10:31:23;49.19;37.70;59.42;;
4048;Laerm;2038;51.728;6.674;2023-07-16T10:34:04;51.38;41.30;67.27;;
4048;Laerm;2038;51.728;6.674;2023-07-16T10:36:37;51.26;39.34;64.13;;
4048;Laerm;2038;51.728;6.674;2023-07-16T10:39:04;50.68;42.16;61.37;;
4048;Laerm;2038;51.728;6.674;2023-07-16T10:41:34;53.14;42.76;63.83;;
4048;Laerm;2038;51.728;6.674;2023-07-16T10:44:01;51.68;42.65;61.65;;
4048;Laerm;2038;51.728;6.674;2023-07-16T10:46:28;49.95;41.14;60.44;;
4048;Laerm;2038;51.728;6.674;2023-07-16T10:48:54;50.57;41.75;59.26;;
4048;Laerm;2038;51.728;6.674;2023-07-16T10:51:26;51.18;43.68;60.01;;
4048;Laerm;2038;51.728;6.674;2023-07-16T10:53:56;49.43;40.33;58.85;;
4048;Laerm;2038;51.728;6.674;2023-07-16T10:56:22;47.63;37.88;60.18;;
4048;Laerm;2038;51.728;6.674;2023-07-16T10:58:49;53.15;42.76;65.35;;
4048;Laerm;2038;51.728;6.674;2023-07-16T11:01:16;52.70;41.89;61.54;;
4048;Laerm;2038;51.728;6.674;2023-07-16T11:03:42;53.16;40.71;66.02;;
4048;Laerm;2038;51.728;6.674;2023-07-16T11:06:10;51.61;44.90;60.61;;
4048;Laerm;2038;51.728;6.674;2023-07-16T11:08:38;51.78;40.03;64.92;;
4048;Laerm;2038;51.728;6.674;2023-07-16T11:11:04;52.77;44.03;63.49;;
4048;Laerm;2038;51.728;6.674;2023-07-16T11:13:34;52.28;44.76;63.49;;
4048;Laerm;2038;51.728;6.674;2023-07-16T11:16:10;54.96;40.33;69.41;;
4048;Laerm;2038;51.728;6.674;2023-07-16T11:18:37;54.20;45.39;66.76;;
4048;Laerm;2038;51.728;6.674;2023-07-16T11:21:04;50.34;41.06;62.36;;
4048;Laerm;2038;51.728;6.674;2023-07-16T11:23:36;50.07;40.53;61.00;;
4048;Laerm;2038;51.728;6.674;2023-07-16T11:26:03;50.17;41.06;64.27;;
4048;Laerm;2038;51.728;6.674;2023-07-16T11:28:41;51.22;39.92;63.95;;
4048;Laerm;2038;51.728;6.674;2023-07-16T11:31:17;49.93;39.58;65.22;;
4048;Laerm;2038;51.728;6.674;2023-07-16T11:33:45;49.07;40.13;58.38;;
4048;Laerm;2038;51.728;6.674;2023-07-16T11:36:12;50.88;43.49;59.88;;
4048;Laerm;2038;51.728;6.674;2023-07-16T11:38:38;49.72;40.71;59.97;;
4048;Laerm;2038;51.728;6.674;2023-07-16T11:41:05;47.17;39.70;58.78;;
4048;Laerm;2038;51.728;6.674;2023-07-16T11:43:35;47.79;38.95;59.62;;
4048;Laerm;2038;51.728;6.674;2023-07-16T11:46:05;47.45;38.05;58.73;;
4048;Laerm;2038;51.728;6.674;2023-07-16T11:48:40;50.15;39.46;59.94;;
4048;Laerm;2038;51.728;6.674;2023-07-16T11:51:06;51.30;44.39;62.10;;
4048;Laerm;2038;51.728;6.674;2023-07-16T11:53:32;49.52;40.98;58.77;;
4048;Laerm;2038;51.728;6.674;2023-07-16T11:55:58;49.94;42.29;63.27;;
4048;Laerm;2038;51.728;6.674;2023-07-16T11:58:24;48.28;41.96;57.67;;
4048;Laerm;2038;51.728;6.674;2023-07-16T12:00:51;49.50;39.92;61.22;;
4048;Laerm;2038;51.728;6.674;2023-07-16T12:03:17;52.71;44.31;60.22;;
4048;Laerm;2038;51.728;6.674;2023-07-16T12:05:44;51.55;44.03;62.41;;
4048;Laerm;2038;51.728;6.674;2023-07-16T12:08:10;51.02;42.16;60.34;;
4048;Laerm;2038;51.728;6.674;2023-07-16T12:10:41;51.58;42.98;65.23;;
4048;Laerm;2038;51.728;6.674;2023-07-16T12:13:07;54.55;44.07;63.34;;
4048;Laerm;2038;51.728;6.674;2023-07-16T12:15:33;54.87;45.30;63.07;;
4048;Laerm;2038;51.728;6.674;2023-07-16T12:18:00;51.44;45.39;60.48;;
4048;Laerm;2038;51.728;6.674;2023-07-16T12:20:26;53.56;43.09;65.93;;
4048;Laerm;2038;51.728;6.674;2023-07-16T12:22:53;49.97;42.22;58.40;;
4048;Laerm;2038;51.728;6.674;2023-07-16T12:25:19;53.55;43.90;62.69;;
4048;Laerm;2038;51.728;6.674;2023-07-16T12:27:46;51.09;43.04;62.21;;
4048;Laerm;2038;51.728;6.674;2023-07-16T12:30:12;54.27;43.09;65.13;;
4048;Laerm;2038;51.728;6.674;2023-07-16T12:32:38;47.16;41.14;59.88;;
4048;Laerm;2038;51.728;6.674;2023-07-16T12:35:05;46.69;39.34;55.09;;
4048;Laerm;2038;51.728;6.674;2023-07-16T12:37:31;52.43;41.96;67.26;;
4048;Laerm;2038;51.728;6.674;2023-07-16T12:39:57;52.73;40.80;67.93;;
4048;Laerm;2038;51.728;6.674;2023-07-16T12:42:24;52.05;39.70;64.66;;
4048;Laerm;2038;51.728;6.674;2023-07-16T12:44:50;48.82;40.98;66.10;;
4048;Laerm;2038;51.728;6.674;2023-07-16T12:47:16;51.45;43.24;62.75;;
4048;Laerm;2038;51.728;6.674;2023-07-16T12:49:42;51.58;42.93;60.85;;
4048;Laerm;2038;51.728;6.674;2023-07-16T12:52:09;47.56;40.89;57.05;;
4048;Laerm;2038;51.728;6.674;2023-07-16T12:54:35;51.08;41.06;64.81;;
4048;Laerm;2038;51.728;6.674;2023-07-16T12:57:01;53.35;44.19;72.37;;
4048;Laerm;2038;51.728;6.674;2023-07-16T12:59:28;51.75;43.90;59.96;;
4048;Laerm;2038;51.728;6.674;2023-07-16T13:01:55;50.35;42.03;62.76;;
4048;Laerm;2038;51.728;6.674;2023-07-16T13:04:21;47.35;40.89;57.65;;
4048;Laerm;2038;51.728;6.674;2023-07-16T13:06:48;50.54;41.46;65.54;;
4048;Laerm;2038;51.728;6.674;2023-07-16T13:09:15;47.31;40.71;58.37;;
4048;Laerm;2038;51.728;6.674;2023-07-16T13:11:43;53.64;40.23;68.25;;
4048;Laerm;2038;51.728;6.674;2023-07-16T13:14:09;47.70;39.92;62.45;;
4048;Laerm;2038;51.728;6.674;2023-07-16T13:16:35;47.67;38.95;56.67;;
4048;Laerm;2038;51.728;6.674;2023-07-16T13:19:03;46.32;39.46;54.47;;
4048;Laerm;2038;51.728;6.674;2023-07-16T13:21:29;47.48;38.52;55.57;;
4048;Laerm;2038;51.728;6.674;2023-07-16T13:23:55;47.92;35.66;60.89;;
4048;Laerm;2038;51.728;6.674;2023-07-16T13:26:22;50.59;40.80;64.94;;
4048;Laerm;2038;51.728;6.674;2023-07-16T13:28:48;49.34;42.59;57.31;;
4048;Laerm;2038;51.728;6.674;2023-07-16T13:31:14;49.40;39.81;64.31;;
4048;Laerm;2038;51.728;6.674;2023-07-16T13:33:40;48.24;39.34;58.72;;
4048;Laerm;2038;51.728;6.674;2023-07-16T13:36:07;47.63;38.52;59.92;;
4048;Laerm;2038;51.728;6.674;2023-07-16T13:38:40;49.25;40.23;59.07;;
4048;Laerm;2038;51.728;6.674;2023-07-16T13:41:06;54.46;43.34;63.95;;
4048;Laerm;2038;51.728;6.674;2023-07-16T13:43:33;54.35;45.40;67.21;;
4048;Laerm;2038;51.728;6.674;2023-07-16T13:45:59;49.04;42.09;56.80;;
4048;Laerm;2038;51.728;6.674;2023-07-16T13:48:25;49.13;41.14;61.35;;
4048;Laerm;2038;51.728;6.674;2023-07-16T13:51:04;48.51;40.71;57.60;;
4048;Laerm;2038;51.728;6.674;2023-07-16T13:53:30;49.74;40.98;60.84;;
4048;Laerm;2038;51.728;6.674;2023-07-16T13:55:56;53.18;39.08;67.63;;
4048;Laerm;2038;51.728;6.674;2023-07-16T13:58:23;46.84;40.43;58.35;;
4048;Laerm;2038;51.728;6.674;2023-07-16T14:00:49;53.75;37.52;68.29;;
4048;Laerm;2038;51.728;6.674;2023-07-16T14:03:15;51.60;43.39;58.69;;
4048;Laerm;2038;51.728;6.674;2023-07-16T14:05:41;52.03;42.35;62.63;;
4048;Laerm;2038;51.728;6.674;2023-07-16T14:08:07;51.13;43.19;60.62;;
4048;Laerm;2038;51.728;6.674;2023-07-16T14:10:34;51.13;41.26;63.70;;
4048;Laerm;2038;51.728;6.674;2023-07-16T14:13:00;47.30;39.08;59.93;;
4048;Laerm;2038;51.728;6.674;2023-07-16T14:15:26;46.45;40.23;54.92;;